createdAt,value
2019-03-26T00:00:28.803Z,31.57
2019-03-26T00:02:57.855Z,27.67
2019-03-26T00:05:26.644Z,21.35
2019-03-26T00:07:55.477Z,14.47
2019-03-26T00:10:24.316Z,13.13
2019-03-26T00:12:53.060Z,18.65
2019-03-26T00:15:22.456Z,14.85
2019-03-26T00:17:51.234Z,13.78
2019-03-26T00:20:20.550Z,14.75
2019-03-26T00:22:49.306Z,14.15
2019-03-26T00:25:18.272Z,17.00
2019-03-26T00:27:47.125Z,12.20
2019-03-26T00:30:16.128Z,12.65
2019-03-26T00:32:44.938Z,15.90
2019-03-26T00:35:13.738Z,10.98
2019-03-26T00:37:42.465Z,11.75
2019-03-26T00:40:11.555Z,11.28
2019-03-26T00:42:40.438Z,8.95
2019-03-26T00:45:09.150Z,12.45
2019-03-26T00:47:37.880Z,10.10
2019-03-26T00:50:07.801Z,11.00
2019-03-26T00:52:36.753Z,11.65
2019-03-26T00:55:06.870Z,13.22
2019-03-26T00:57:35.783Z,9.68
2019-03-26T01:00:06.843Z,9.70
2019-03-26T01:02:36.002Z,13.95
2019-03-26T01:05:06.450Z,11.90
2019-03-26T01:07:35.480Z,9.98
2019-03-26T01:10:05.781Z,10.18
2019-03-26T01:12:34.700Z,12.28
2019-03-26T01:15:03.689Z,9.25
2019-03-26T01:17:32.471Z,11.68
2019-03-26T01:20:01.763Z,12.28
2019-03-26T01:22:30.625Z,9.63
2019-03-26T01:24:59.528Z,10.13
2019-03-26T01:27:28.445Z,10.98
2019-03-26T01:29:57.208Z,11.55
2019-03-26T01:32:26.057Z,10.13
2019-03-26T01:34:54.952Z,10.10
2019-03-26T01:37:23.676Z,16.52
2019-03-26T01:39:52.519Z,14.20
2019-03-26T01:42:21.736Z,10.15
2019-03-26T01:44:50.561Z,11.18
2019-03-26T01:47:19.487Z,11.10
2019-03-26T01:49:48.342Z,13.65
2019-03-26T01:52:17.258Z,15.75
2019-03-26T01:54:46.112Z,10.15
2019-03-26T01:57:15.485Z,12.37
2019-03-26T01:59:44.274Z,10.55
2019-03-26T02:02:12.987Z,11.10
2019-03-26T02:04:41.921Z,10.55
2019-03-26T02:07:11.157Z,12.78
2019-03-26T02:09:39.879Z,13.32
2019-03-26T02:12:08.749Z,13.05
2019-03-26T02:14:37.697Z,13.88
2019-03-26T02:17:06.500Z,13.03
2019-03-26T02:19:35.265Z,12.98
2019-03-26T02:22:04.027Z,17.45
2019-03-26T02:24:33.358Z,11.30
2019-03-26T02:27:02.282Z,12.18
2019-03-26T02:29:31.176Z,17.92
2019-03-26T02:32:00.001Z,14.28
2019-03-26T02:34:28.771Z,11.70
2019-03-26T02:36:58.101Z,11.53
2019-03-26T02:39:26.862Z,12.90
2019-03-26T02:41:56.086Z,13.80
2019-03-26T02:44:24.891Z,14.83
2019-03-26T02:46:53.742Z,15.98
2019-03-26T02:49:22.895Z,15.98
2019-03-26T02:51:51.622Z,16.45
2019-03-26T02:54:20.517Z,17.75
2019-03-26T02:56:49.562Z,15.48
2019-03-26T02:59:18.253Z,18.07
2019-03-26T03:01:47.138Z,18.32
2019-03-26T03:04:16.198Z,21.45
2019-03-26T03:06:45.835Z,23.40
2019-03-26T03:09:14.758Z,24.05
2019-03-26T03:11:43.768Z,21.50
2019-03-26T03:14:12.478Z,17.20
2019-03-26T03:16:41.206Z,16.73
2019-03-26T03:19:10.230Z,17.10
2019-03-26T03:21:38.970Z,24.57
2019-03-26T03:24:07.679Z,19.60
2019-03-26T03:26:36.363Z,22.45
2019-03-26T03:29:05.228Z,23.12
2019-03-26T03:31:34.301Z,24.32
2019-03-26T03:34:03.111Z,24.72
2019-03-26T03:36:32.291Z,23.57
2019-03-26T03:39:01.043Z,20.62
2019-03-26T03:41:29.770Z,20.15
2019-03-26T03:43:58.627Z,20.32
2019-03-26T03:46:27.572Z,16.67
2019-03-26T03:48:57.197Z,19.87
2019-03-26T03:51:27.911Z,17.35
2019-03-26T03:53:57.319Z,22.40
2019-03-26T03:56:29.058Z,16.82
2019-03-26T03:58:59.326Z,17.73
2019-03-26T04:01:28.613Z,19.62
2019-03-26T04:03:57.427Z,20.72
2019-03-26T04:06:26.262Z,18.30
2019-03-26T04:08:55.420Z,21.85
2019-03-26T04:11:24.287Z,26.80
2019-03-26T04:13:53.671Z,23.30
2019-03-26T04:16:22.966Z,21.15
2019-03-26T04:18:51.736Z,19.32
2019-03-26T04:21:21.100Z,18.80
2019-03-26T04:23:49.845Z,22.07
2019-03-26T04:26:18.552Z,16.20
2019-03-26T04:28:47.330Z,22.93
2019-03-26T04:31:16.173Z,21.10
2019-03-26T04:33:44.878Z,21.52
2019-03-26T04:36:25.400Z,24.52
2019-03-26T04:38:44.250Z,20.08
2019-03-26T04:41:13.313Z,18.73
2019-03-26T04:43:42.250Z,18.70
2019-03-26T04:46:11.013Z,20.90
2019-03-26T04:48:40.181Z,19.30
2019-03-26T04:51:08.947Z,20.25
2019-03-26T04:53:38.027Z,17.87
2019-03-26T04:56:06.884Z,20.92
2019-03-26T04:58:35.702Z,18.02
2019-03-26T05:01:04.754Z,23.47
2019-03-26T05:03:33.675Z,20.10
2019-03-26T05:06:02.482Z,22.17
2019-03-26T05:08:31.345Z,22.37
2019-03-26T05:11:00.279Z,19.40
2019-03-26T05:13:29.022Z,20.17
2019-03-26T05:15:58.373Z,19.80
2019-03-26T05:18:27.140Z,17.62
2019-03-26T05:20:56.063Z,16.60
2019-03-26T05:23:24.865Z,15.58
2019-03-26T05:25:53.651Z,19.02
2019-03-26T05:28:22.673Z,14.93
2019-03-26T05:30:51.497Z,14.68
2019-03-26T05:33:20.250Z,15.00
2019-03-26T05:35:51.507Z,13.80
2019-03-26T05:38:19.624Z,14.18
2019-03-26T05:40:48.467Z,13.50
2019-03-26T05:43:17.444Z,17.35
2019-03-26T05:45:46.140Z,18.30
2019-03-26T05:48:15.715Z,17.80
2019-03-26T05:50:45.031Z,16.15
2019-03-26T05:53:14.156Z,14.03
2019-03-26T05:55:43.260Z,10.28
2019-03-26T05:58:11.973Z,13.30
2019-03-26T06:00:40.803Z,10.15
2019-03-26T06:03:09.534Z,10.63
2019-03-26T06:05:38.307Z,11.63
2019-03-26T06:08:07.108Z,15.72
2019-03-26T06:10:36.268Z,15.23
2019-03-26T06:13:05.188Z,14.93
2019-03-26T06:15:34.201Z,23.67
2019-03-26T06:18:03.007Z,13.08
2019-03-26T06:20:31.758Z,9.88
2019-03-26T06:23:00.947Z,11.05
2019-03-26T06:25:29.850Z,14.13
2019-03-26T06:27:58.633Z,14.70
2019-03-26T06:30:27.528Z,15.10
2019-03-26T06:32:56.352Z,15.40
2019-03-26T06:35:25.094Z,15.55
2019-03-26T06:37:53.847Z,16.87
2019-03-26T06:40:22.661Z,15.40
2019-03-26T06:42:51.876Z,15.15
2019-03-26T06:45:21.408Z,12.78
2019-03-26T06:47:50.374Z,12.98
2019-03-26T06:50:21.360Z,9.53
2019-03-26T06:52:50.127Z,11.90
2019-03-26T06:55:18.951Z,10.18
2019-03-26T06:57:47.881Z,9.73
2019-03-26T07:00:28.731Z,14.80
2019-03-26T07:02:58.959Z,10.32
2019-03-26T07:05:27.818Z,9.98
2019-03-26T07:07:56.980Z,7.37
2019-03-26T07:10:28.556Z,12.20
2019-03-26T07:12:58.955Z,10.65
2019-03-26T07:15:28.144Z,10.43
2019-03-26T07:17:56.915Z,7.40
2019-03-26T07:20:25.751Z,12.10
2019-03-26T07:22:54.799Z,13.70
2019-03-26T07:25:23.713Z,14.07
2019-03-26T07:27:52.481Z,11.03
2019-03-26T07:30:41.480Z,17.45
2019-03-26T07:33:11.619Z,14.63
2019-03-26T07:35:40.986Z,13.03
2019-03-26T07:38:10.155Z,16.45
2019-03-26T07:40:39.734Z,16.30
2019-03-26T07:43:08.503Z,12.15
2019-03-26T07:45:37.810Z,12.98
2019-03-26T07:48:06.813Z,10.95
2019-03-26T07:50:35.832Z,11.73
2019-03-26T07:53:05.087Z,8.88
2019-03-26T07:55:34.672Z,10.60
2019-03-26T07:58:03.540Z,8.80
2019-03-26T08:00:39.346Z,10.90
2019-03-26T08:03:08.466Z,17.92
2019-03-26T08:05:37.642Z,9.20
2019-03-26T08:08:06.615Z,9.08
2019-03-26T08:10:35.671Z,6.65
2019-03-26T08:13:04.889Z,11.40
2019-03-26T08:15:33.948Z,10.32
2019-03-26T08:18:02.761Z,11.65
2019-03-26T08:20:31.569Z,10.25
2019-03-26T08:23:00.324Z,10.53
2019-03-26T08:25:30.338Z,10.38
2019-03-26T08:27:59.171Z,9.55
2019-03-26T08:30:31.945Z,10.58
2019-03-26T08:33:01.163Z,9.33
2019-03-26T08:35:30.425Z,12.55
2019-03-26T08:38:11.854Z,10.95
2019-03-26T08:40:30.569Z,9.63
2019-03-26T08:42:59.491Z,8.38
2019-03-26T08:45:29.808Z,18.67
2019-03-26T08:48:00.418Z,8.40
2019-03-26T08:50:30.106Z,9.68
2019-03-26T08:52:59.401Z,12.58
2019-03-26T08:55:30.123Z,14.40
2019-03-26T08:57:59.003Z,6.75
2019-03-26T09:00:28.163Z,8.68
2019-03-26T09:02:57.787Z,9.08
2019-03-26T09:05:26.594Z,7.12
2019-03-26T09:07:56.197Z,11.63
2019-03-26T09:10:25.196Z,11.05
2019-03-26T09:12:53.939Z,15.20
2019-03-26T09:15:22.885Z,7.60
2019-03-26T09:17:51.800Z,9.30
2019-03-26T09:20:20.769Z,7.53
2019-03-26T09:22:49.665Z,10.72
2019-03-26T09:25:18.553Z,12.30
2019-03-26T09:27:47.411Z,6.42
2019-03-26T09:30:16.941Z,4.92
2019-03-26T09:32:46.037Z,9.88
2019-03-26T09:35:15.081Z,8.45
2019-03-26T09:37:43.927Z,6.40
2019-03-26T09:40:13.623Z,11.43
2019-03-26T09:42:47.509Z,10.75
2019-03-26T09:45:16.373Z,6.40
2019-03-26T09:47:45.661Z,9.90
2019-03-26T09:50:18.026Z,6.20
2019-03-26T09:52:47.050Z,9.25
2019-03-26T09:55:16.058Z,14.10
2019-03-26T09:57:44.858Z,9.88
2019-03-26T10:00:14.019Z,10.35
2019-03-26T10:02:43.609Z,11.12
2019-03-26T10:05:12.892Z,10.55
2019-03-26T10:07:41.729Z,8.13
2019-03-26T10:10:10.827Z,11.20
2019-03-26T10:12:40.188Z,12.03
2019-03-26T10:15:09.799Z,12.03
2019-03-26T10:17:38.720Z,8.78
2019-03-26T10:20:08.714Z,10.00
2019-03-26T10:22:37.809Z,10.00
2019-03-26T10:25:06.769Z,8.30
2019-03-26T10:27:35.571Z,7.20
2019-03-26T10:30:05.844Z,10.90
2019-03-26T10:32:35.256Z,11.83
2019-03-26T10:35:04.417Z,7.85
2019-03-26T10:37:34.556Z,9.03
2019-03-26T10:40:04.026Z,7.40
2019-03-26T10:42:33.164Z,4.97
2019-03-26T10:45:02.017Z,9.30
2019-03-26T10:47:30.823Z,5.65
2019-03-26T10:49:59.813Z,7.45
2019-03-26T10:52:31.638Z,11.53
2019-03-26T10:54:59.444Z,8.55
2019-03-26T10:57:28.255Z,11.80
2019-03-26T10:59:57.492Z,15.63
2019-03-26T11:02:26.261Z,11.50
2019-03-26T11:04:55.175Z,11.55
2019-03-26T11:07:24.008Z,13.22
2019-03-26T11:09:52.852Z,10.10
2019-03-26T11:12:21.629Z,10.30
2019-03-26T11:14:50.396Z,10.95
2019-03-26T11:17:19.360Z,10.03
2019-03-26T11:19:48.259Z,9.80
2019-03-26T11:22:17.073Z,9.65
2019-03-26T11:24:46.178Z,8.45
2019-03-26T11:27:14.961Z,10.60
2019-03-26T11:29:44.309Z,14.00
2019-03-26T11:32:13.349Z,12.75
2019-03-26T11:34:42.379Z,16.37
2019-03-26T11:37:11.264Z,12.20
2019-03-26T11:39:40.162Z,13.48
2019-03-26T11:42:09.001Z,13.83
2019-03-26T11:44:38.290Z,15.83
2019-03-26T11:47:07.170Z,16.23
2019-03-26T11:49:35.909Z,9.45
2019-03-26T11:52:05.304Z,18.30
2019-03-26T11:54:34.122Z,18.02
2019-03-26T11:57:04.386Z,14.85
2019-03-26T11:59:33.072Z,15.15
2019-03-26T12:02:03.641Z,17.52
2019-03-26T12:04:32.471Z,22.37
2019-03-26T12:07:01.332Z,21.57
2019-03-26T12:09:30.062Z,18.25
2019-03-26T12:11:58.837Z,17.75
2019-03-26T12:14:27.650Z,20.52
2019-03-26T12:16:56.824Z,20.15
2019-03-26T12:19:26.334Z,19.20
2019-03-26T12:21:55.225Z,20.37
2019-03-26T12:24:24.423Z,21.30
2019-03-26T12:26:53.539Z,25.10
2019-03-26T12:29:22.393Z,16.05
2019-03-26T12:31:51.097Z,17.73
2019-03-26T12:34:19.799Z,18.60
2019-03-26T12:36:48.728Z,21.35
2019-03-26T12:39:17.730Z,18.15
2019-03-26T12:41:46.446Z,22.25
2019-03-26T12:44:15.963Z,18.07
2019-03-26T12:46:44.979Z,17.82
2019-03-26T12:49:14.727Z,23.38
2019-03-26T12:51:44.586Z,18.52
2019-03-26T12:54:13.683Z,14.15
2019-03-26T12:56:42.597Z,19.35
2019-03-26T12:59:11.584Z,21.00
2019-03-26T13:01:40.407Z,16.20
2019-03-26T13:04:13.350Z,18.75
2019-03-26T13:06:40.234Z,20.37
2019-03-26T13:09:10.012Z,21.95
2019-03-26T13:11:47.757Z,19.90
2019-03-26T13:14:16.762Z,18.10
2019-03-26T13:16:45.851Z,18.92
2019-03-26T13:19:14.978Z,22.85
2019-03-26T13:21:43.897Z,19.37
2019-03-26T13:24:12.729Z,16.48
2019-03-26T13:26:41.645Z,32.55
2019-03-26T13:29:10.674Z,27.10
2019-03-26T13:31:39.679Z,21.45
2019-03-26T13:34:08.710Z,18.23
2019-03-26T13:36:37.609Z,21.27
2019-03-26T13:39:09.034Z,20.80
2019-03-26T13:41:37.969Z,22.02
2019-03-26T13:44:07.073Z,15.85
2019-03-26T13:46:35.861Z,15.35
2019-03-26T13:49:05.389Z,14.85
2019-03-26T13:51:37.155Z,16.95
2019-03-26T13:54:06.246Z,15.30
2019-03-26T13:56:35.161Z,17.40
2019-03-26T13:59:04.262Z,16.67
2019-03-26T14:01:33.063Z,17.48
2019-03-26T14:04:02.124Z,16.42
2019-03-26T14:06:32.447Z,15.48
2019-03-26T14:09:01.520Z,18.62
2019-03-26T14:11:30.253Z,16.37
2019-03-26T14:13:59.095Z,18.55
2019-03-26T14:16:27.993Z,15.80
2019-03-26T14:18:56.954Z,17.25
2019-03-26T14:21:25.788Z,17.98
2019-03-26T14:23:55.743Z,19.67
2019-03-26T14:26:24.764Z,21.95
2019-03-26T14:28:53.685Z,22.30
2019-03-26T14:31:22.567Z,16.95
2019-03-26T14:33:52.003Z,16.00
2019-03-26T14:36:20.826Z,14.50
2019-03-26T14:38:51.237Z,19.45
2019-03-26T14:41:20.321Z,19.62
2019-03-26T14:43:49.172Z,16.42
2019-03-26T14:46:17.893Z,20.02
2019-03-26T14:48:46.709Z,17.17
2019-03-26T14:51:15.657Z,21.17
2019-03-26T14:53:44.463Z,15.20
2019-03-26T14:56:13.310Z,16.42
2019-03-26T14:58:42.175Z,16.90
2019-03-26T15:01:11.163Z,23.45
2019-03-26T15:03:39.988Z,18.92
2019-03-26T15:06:08.975Z,17.32
2019-03-26T15:08:43.675Z,18.82
2019-03-26T15:11:12.470Z,20.77
2019-03-26T15:13:41.369Z,17.35
2019-03-26T15:16:10.278Z,16.52
2019-03-26T15:18:39.033Z,17.80
2019-03-26T15:21:07.971Z,20.25
2019-03-26T15:23:36.903Z,25.92
2019-03-26T15:26:05.727Z,16.80
2019-03-26T15:28:34.607Z,22.32
2019-03-26T15:31:03.598Z,16.57
2019-03-26T15:33:33.867Z,21.10
2019-03-26T15:36:02.879Z,17.80
2019-03-26T15:38:32.121Z,19.90
2019-03-26T15:41:01.440Z,18.95
2019-03-26T15:43:36.441Z,15.03
2019-03-26T15:46:05.720Z,15.05
2019-03-26T15:48:34.815Z,14.00
2019-03-26T15:51:03.742Z,14.20
2019-03-26T15:53:32.646Z,11.90
2019-03-26T15:56:02.455Z,18.60
2019-03-26T15:58:31.557Z,15.40
2019-03-26T16:01:00.385Z,16.07
2019-03-26T16:03:29.302Z,15.68
2019-03-26T16:05:58.402Z,15.72
2019-03-26T16:08:28.840Z,14.70
2019-03-26T16:10:57.635Z,17.25
2019-03-26T16:13:26.586Z,16.70
2019-03-26T16:15:55.462Z,15.53
2019-03-26T16:18:24.348Z,11.65
2019-03-26T16:20:53.300Z,14.40
2019-03-26T16:23:22.100Z,15.03
2019-03-26T16:25:50.978Z,17.05
2019-03-26T16:28:20.045Z,14.20
2019-03-26T16:30:48.926Z,16.20
2019-03-26T16:33:21.286Z,13.85
2019-03-26T16:35:50.021Z,12.65
2019-03-26T16:38:19.011Z,12.50
2019-03-26T16:40:47.770Z,13.18
2019-03-26T16:43:16.939Z,14.03
2019-03-26T16:45:46.090Z,18.80
2019-03-26T16:48:15.140Z,13.78
2019-03-26T16:50:44.370Z,11.53
2019-03-26T16:53:13.952Z,14.85
2019-03-26T16:55:43.333Z,12.35
2019-03-26T16:58:12.288Z,17.90
2019-03-26T17:00:41.093Z,11.05
2019-03-26T17:03:10.020Z,13.62
2019-03-26T17:05:39.102Z,18.23
2019-03-26T17:08:08.035Z,12.58
2019-03-26T17:10:36.811Z,12.70
2019-03-26T17:13:06.289Z,13.83
2019-03-26T17:15:35.189Z,13.13
2019-03-26T17:18:04.512Z,14.78
2019-03-26T17:20:33.385Z,12.05
2019-03-26T17:23:02.943Z,10.68
2019-03-26T17:25:32.028Z,9.78
2019-03-26T17:28:01.382Z,11.12
2019-03-26T17:30:30.162Z,14.33
2019-03-26T17:32:59.917Z,14.18
2019-03-26T17:35:28.778Z,15.13
2019-03-26T17:38:00.148Z,14.43
2019-03-26T17:40:28.529Z,15.50
2019-03-26T17:42:57.613Z,11.40
2019-03-26T17:45:26.599Z,11.70
2019-03-26T17:47:56.456Z,14.33
2019-03-26T17:50:25.530Z,12.13
2019-03-26T17:52:54.514Z,17.02
2019-03-26T17:55:23.391Z,14.20
2019-03-26T17:57:53.085Z,13.72
2019-03-26T18:00:36.904Z,14.75
2019-03-26T18:03:05.987Z,15.48
2019-03-26T18:05:34.813Z,13.48
2019-03-26T18:08:04.115Z,14.80
2019-03-26T18:10:34.422Z,14.93
2019-03-26T18:13:03.508Z,14.68
2019-03-26T18:15:32.707Z,16.82
2019-03-26T18:18:02.084Z,14.13
2019-03-26T18:20:32.875Z,8.88
2019-03-26T18:23:02.025Z,19.42
2019-03-26T18:25:31.079Z,14.87
2019-03-26T18:28:01.275Z,14.78
2019-03-26T18:30:30.023Z,14.55
2019-03-26T18:32:58.967Z,12.73
2019-03-26T18:35:27.807Z,11.80
2019-03-26T18:37:56.688Z,11.45
2019-03-26T18:40:25.711Z,13.95
2019-03-26T18:42:54.899Z,13.62
2019-03-26T18:45:23.791Z,16.00
2019-03-26T18:47:52.625Z,16.60
2019-03-26T18:50:21.739Z,18.45
2019-03-26T18:52:50.480Z,19.20
2019-03-26T18:55:20.165Z,13.65
2019-03-26T18:57:48.973Z,12.98
2019-03-26T19:00:32.711Z,19.73
2019-03-26T19:03:01.692Z,13.05
2019-03-26T19:05:30.547Z,11.83
2019-03-26T19:08:00.523Z,13.90
2019-03-26T19:10:30.944Z,18.15
2019-03-26T19:13:01.194Z,12.90
2019-03-26T19:15:30.637Z,14.20
2019-03-26T19:17:59.610Z,10.75
2019-03-26T19:20:28.554Z,14.50
2019-03-26T19:22:57.476Z,29.98
2019-03-26T19:25:26.503Z,40.55
2019-03-26T19:27:55.288Z,15.08
2019-03-26T19:30:24.369Z,12.60
2019-03-26T19:32:53.347Z,15.70
2019-03-26T19:35:22.214Z,16.10
2019-03-26T19:37:51.742Z,17.20
2019-03-26T19:40:20.665Z,18.87
2019-03-26T19:42:51.238Z,21.42
2019-03-26T19:45:20.135Z,16.02
2019-03-26T19:47:49.540Z,17.02
2019-03-26T19:50:18.483Z,14.43
2019-03-26T19:52:47.390Z,18.05
2019-03-26T19:55:16.524Z,18.62
2019-03-26T19:57:46.160Z,26.20
2019-03-26T20:00:15.570Z,32.03
2019-03-26T20:02:44.568Z,24.70
2019-03-26T20:05:13.565Z,27.98
2019-03-26T20:07:42.732Z,23.90
2019-03-26T20:10:13.291Z,19.25
2019-03-26T20:12:42.936Z,17.57
2019-03-26T20:15:13.443Z,17.42
2019-03-26T20:17:42.389Z,24.30
2019-03-26T20:20:13.403Z,13.15
2019-03-26T20:22:42.694Z,15.95
2019-03-26T20:25:11.898Z,12.70
2019-03-26T20:27:41.364Z,20.35
2019-03-26T20:30:11.324Z,14.25
2019-03-26T20:32:40.807Z,20.65
2019-03-26T20:35:10.292Z,19.45
2019-03-26T20:37:39.928Z,13.93
2019-03-26T20:40:11.534Z,13.25
2019-03-26T20:42:40.863Z,11.60
2019-03-26T20:45:14.227Z,9.03
2019-03-26T20:47:42.449Z,9.70
2019-03-26T20:50:12.544Z,16.20
2019-03-26T20:52:43.946Z,15.88
2019-03-26T20:55:14.631Z,18.40
2019-03-26T20:57:44.703Z,11.57
2019-03-26T21:00:23.336Z,12.30
2019-03-26T21:02:52.975Z,8.10
2019-03-26T21:05:22.783Z,10.10
2019-03-26T21:07:52.030Z,19.05
2019-03-26T21:10:24.378Z,14.30
2019-03-26T21:12:53.558Z,8.80
2019-03-26T21:15:22.670Z,9.50
2019-03-26T21:17:51.798Z,11.38
2019-03-26T21:20:20.642Z,9.50
2019-03-26T21:22:49.749Z,10.78
2019-03-26T21:25:19.927Z,10.75
2019-03-26T21:27:48.999Z,13.60
2019-03-26T21:30:18.849Z,13.40
2019-03-26T21:32:47.762Z,12.88
2019-03-26T21:35:16.926Z,13.85
2019-03-26T21:37:45.756Z,14.55
2019-03-26T21:40:14.833Z,17.75
2019-03-26T21:42:43.548Z,15.30
2019-03-26T21:45:14.071Z,9.40
2019-03-26T21:47:42.855Z,16.32
2019-03-26T21:50:12.169Z,14.43
2019-03-26T21:52:41.163Z,11.35
2019-03-26T21:55:13.190Z,15.38
2019-03-26T21:57:41.495Z,11.22
2019-03-26T22:00:11.954Z,13.40
2019-03-26T22:02:40.957Z,15.28
2019-03-26T22:05:10.811Z,10.23
2019-03-26T22:07:39.910Z,9.45
2019-03-26T22:10:09.463Z,9.95
2019-03-26T22:12:38.372Z,17.02
2019-03-26T22:15:08.537Z,12.18
2019-03-26T22:17:38.858Z,9.80
2019-03-26T22:20:10.909Z,11.55
2019-03-26T22:22:40.501Z,12.20
2019-03-26T22:25:10.067Z,11.60
2019-03-26T22:27:39.593Z,8.15
2019-03-26T22:30:09.483Z,10.75
2019-03-26T22:32:39.216Z,10.65
2019-03-26T22:35:09.126Z,10.00
2019-03-26T22:37:38.199Z,9.40
2019-03-26T22:40:07.762Z,13.25
2019-03-26T22:42:36.630Z,12.35
2019-03-26T22:45:06.956Z,11.35
2019-03-26T22:47:36.113Z,12.00
2019-03-26T22:50:08.241Z,9.75
2019-03-26T22:52:37.218Z,10.23
2019-03-26T22:55:07.449Z,12.30
2019-03-26T22:57:36.719Z,10.38
2019-03-26T23:00:10.643Z,14.80
2019-03-26T23:02:39.956Z,11.28
2019-03-26T23:05:10.063Z,11.05
2019-03-26T23:07:38.989Z,13.95
2019-03-26T23:10:08.237Z,10.45
2019-03-26T23:12:37.102Z,13.62
2019-03-26T23:15:19.085Z,12.45
2019-03-26T23:17:47.956Z,14.47
2019-03-26T23:20:17.149Z,12.50
2019-03-26T23:22:46.095Z,10.98
2019-03-26T23:25:15.339Z,11.50
2019-03-26T23:27:44.494Z,12.07
2019-03-26T23:30:13.488Z,9.40
2019-03-26T23:32:42.464Z,13.30
2019-03-26T23:35:11.415Z,11.85
2019-03-26T23:37:40.373Z,11.43
2019-03-26T23:40:09.687Z,11.43
2019-03-26T23:42:38.770Z,17.80
2019-03-26T23:45:09.765Z,13.98
2019-03-26T23:47:38.904Z,14.07
2019-03-26T23:50:10.653Z,11.83
2019-03-26T23:52:39.659Z,11.25
2019-03-26T23:55:08.933Z,13.15
2019-03-26T23:57:38.049Z,12.50
